»·PEaware :: N281VT KBUR-KLAS

N281VT :: KBUR-KLAS

FLIGHT INFORMATION

Flight Status: Arrived
Operator: Privately registered:
United States
More flights under this callsign
Pilot: Gopalakrishna S. (22834)
Aircraft: Unknown
(EPIC)
More flights by this aircraft type
Origin: KBUR Bob Hope-Burbank
United States
Destination: KLAS McCarran Intl
United States
More flights between these airports :: More routes between these airports
Route: +VNY3 DAG CRESO4
File this flight plan on PilotEdge
Remarks: NO TEST
Altitude:
(Current/Filed)
11,500ft
Speed:
(Current/Filed)
150kts
Departed: 22-Mar-19 10:08 PM
Arrived: 22-Mar-19 11:06 PM
Distance/Time
Traveled:
194nm/0:58
Distance/Time
To Go:
Arrived

Flight Plot

Page will automatically refresh every two minutes.

Flight plan parsing failed; only flown route is shown


Map Options




Map Legend


Flown Route
Filed Route
Departure Airport
Arrival Airport
Navaid (VOR, NDB)
Fix

Horizontal Profiles

Position Reports

Time Latitude Longitude Heading Altitude Ground
Speed
22-Mar-19 21:57 34.210739 -118.357948 257 758ft 0kts
22-Mar-19 21:58 34.210739 -118.357948 257 758ft 0kts
22-Mar-19 21:59 34.210739 -118.357948 257 758ft 0kts
22-Mar-19 22:00 34.210739 -118.357948 257 758ft 0kts
22-Mar-19 22:01 34.210739 -118.357948 257 758ft 0kts
22-Mar-19 22:02 34.210739 -118.357948 257 758ft 0kts
22-Mar-19 22:03 34.210739 -118.357948 257 758ft 0kts
22-Mar-19 22:04 34.210739 -118.357948 257 758ft 0kts
22-Mar-19 22:05 34.211732 -118.359147 312 763ft 0kts
22-Mar-19 22:06 34.211732 -118.359147 312 763ft 0kts
22-Mar-19 22:07 34.207087 -118.359006 166 750ft 100kts
22-Mar-19 22:08 34.181380 -118.378075 225 2401ft 135kts
22-Mar-19 22:09 34.159953 -118.412611 270 4192ft 132kts
22-Mar-19 22:10 34.183514 -118.444349 328 5975ft 126kts
22-Mar-19 22:11 34.216086 -118.451661 342 7761ft 112kts
22-Mar-19 22:12 34.247702 -118.453535 351 9568ft 120kts
22-Mar-19 22:13 34.284049 -118.455303 351 10991ft 163kts
22-Mar-19 22:14 34.339864 -118.458230 353 10991ft 219kts
22-Mar-19 22:15 34.397411 -118.439727 51 10994ft 245kts
22-Mar-19 22:16 34.438370 -118.372730 50 10989ft 248kts
22-Mar-19 22:17 34.480394 -118.305731 50 10980ft 250kts
22-Mar-19 22:18 34.522321 -118.238515 49 10981ft 250kts
22-Mar-19 22:19 34.564215 -118.171486 49 11008ft 249kts
22-Mar-19 22:20 34.606048 -118.104443 49 11008ft 249kts
22-Mar-19 22:21 34.635393 -118.030070 81 11009ft 254kts
22-Mar-19 22:22 34.644420 -117.945346 81 11009ft 251kts
22-Mar-19 22:23 34.653619 -117.860879 80 11009ft 252kts
22-Mar-19 22:24 34.663002 -117.774439 81 10985ft 271kts
22-Mar-19 22:25 34.684816 -117.683076 70 10984ft 293kts
22-Mar-19 22:26 34.709656 -117.586251 70 10983ft 304kts
22-Mar-19 22:27 34.734818 -117.487671 70 10992ft 306kts
22-Mar-19 22:28 34.760050 -117.388486 71 10992ft 306kts
22-Mar-19 22:29 34.785128 -117.289454 71 10989ft 306kts
22-Mar-19 22:30 34.810154 -117.190267 71 10989ft 305kts
22-Mar-19 22:31 34.834973 -117.091553 71 10981ft 305kts
22-Mar-19 22:32 34.860277 -116.990493 71 10982ft 319kts
22-Mar-19 22:33 34.886149 -116.886722 71 10981ft 320kts
22-Mar-19 22:34 34.911886 -116.783089 71 10981ft 319kts
22-Mar-19 22:35 34.937542 -116.679361 71 11000ft 318kts
22-Mar-19 22:36 34.963329 -116.576120 65 10996ft 318kts
22-Mar-19 22:37 35.005496 -116.481399 59 11000ft 317kts
22-Mar-19 22:38 35.047398 -116.387020 59 11010ft 316kts
22-Mar-19 22:40 35.089421 -116.292071 60 11007ft 316kts
22-Mar-19 22:41 35.131330 -116.197095 60 11008ft 315kts
22-Mar-19 22:42 35.172955 -116.102505 60 11009ft 315kts
22-Mar-19 22:43 35.214242 -116.008424 60 11009ft 315kts
22-Mar-19 22:44 35.255619 -115.913918 60 11010ft 314kts
22-Mar-19 22:45 35.296621 -115.819922 60 11009ft 311kts
22-Mar-19 22:46 35.348793 -115.736132 45 11009ft 309kts
22-Mar-19 22:47 35.407012 -115.658674 45 10868ft 300kts
22-Mar-19 22:48 35.461514 -115.585839 46 10079ft 281kts
22-Mar-19 22:49 35.514236 -115.515201 46 10073ft 280kts
22-Mar-19 22:50 35.567194 -115.444158 46 10073ft 284kts
22-Mar-19 22:51 35.620640 -115.372308 46 10073ft 285kts
22-Mar-19 22:52 35.674169 -115.299639 46 10072ft 285kts
22-Mar-19 22:53 35.727203 -115.227376 46 10072ft 285kts
22-Mar-19 22:54 35.779641 -115.156003 46 8380ft 277kts
22-Mar-19 22:55 35.830699 -115.087145 46 7077ft 260kts
22-Mar-19 22:56 35.878545 -115.022583 46 7064ft 251kts
22-Mar-19 22:57 35.923314 -114.961673 46 6091ft 208kts
22-Mar-19 22:57 35.955517 -114.917708 46 6066ft 219kts
22-Mar-19 22:59 36.016629 -114.910430 351 5062ft 167kts
22-Mar-19 23:00 36.058828 -114.916726 348 5053ft 142kts
22-Mar-19 23:00 36.073625 -114.946771 269 5046ft 127kts
22-Mar-19 23:01 36.073581 -114.989087 270 4287ft 125kts
22-Mar-19 23:03 36.073641 -115.042752 270 3411ft 136kts
22-Mar-19 23:03 36.073654 -115.081388 270 2795ft 121kts
22-Mar-19 23:04 36.073757 -115.119952 267 2179ft 111kts
22-Mar-19 23:05 36.073658 -115.141321 270 2085ft 30kts
22-Mar-19 23:06 36.077624 -115.146779 314 2099ft 0kts

Navigation Log

Ident Type
Flight plan parsing failed, navigation log unavailable